sensor_id;sensor_type;location;lat;lon;timestamp;P1;durP1;ratioP1;P2;durP2;ratioP2
82387;SDS011;72027;47.420;9.310;2024-01-06T00:00:45;3.08;;;2.40;;
82387;SDS011;72027;47.420;9.310;2024-01-06T00:03:15;4.15;;;3.03;;
82387;SDS011;72027;47.420;9.310;2024-01-06T00:05:43;4.90;;;3.50;;
82387;SDS011;72027;47.420;9.310;2024-01-06T00:08:11;5.25;;;3.88;;
82387;SDS011;72027;47.420;9.310;2024-01-06T00:10:40;4.38;;;2.90;;
82387;SDS011;72027;47.420;9.310;2024-01-06T00:13:08;4.75;;;3.47;;
82387;SDS011;72027;47.420;9.310;2024-01-06T00:15:35;4.82;;;3.78;;
82387;SDS011;72027;47.420;9.310;2024-01-06T00:18:03;4.18;;;2.70;;
82387;SDS011;72027;47.420;9.310;2024-01-06T00:20:32;4.63;;;3.17;;
82387;SDS011;72027;47.420;9.310;2024-01-06T00:22:59;4.47;;;3.22;;
82387;SDS011;72027;47.420;9.310;2024-01-06T00:25:27;4.15;;;3.08;;
82387;SDS011;72027;47.420;9.310;2024-01-06T00:27:56;4.43;;;3.38;;
82387;SDS011;72027;47.420;9.310;2024-01-06T00:30:24;6.63;;;2.92;;
82387;SDS011;72027;47.420;9.310;2024-01-06T00:32:52;3.33;;;2.50;;
82387;SDS011;72027;47.420;9.310;2024-01-06T00:35:20;3.15;;;2.78;;
82387;SDS011;72027;47.420;9.310;2024-01-06T00:37:47;5.28;;;3.75;;
82387;SDS011;72027;47.420;9.310;2024-01-06T00:40:15;5.82;;;3.60;;
82387;SDS011;72027;47.420;9.310;2024-01-06T00:42:45;4.55;;;3.20;;
82387;SDS011;72027;47.420;9.310;2024-01-06T00:45:14;4.55;;;3.35;;
82387;SDS011;72027;47.420;9.310;2024-01-06T00:47:42;5.25;;;3.20;;
82387;SDS011;72027;47.420;9.310;2024-01-06T00:50:10;5.28;;;3.17;;
82387;SDS011;72027;47.420;9.310;2024-01-06T00:52:38;4.65;;;3.03;;
82387;SDS011;72027;47.420;9.310;2024-01-06T00:55:06;3.90;;;3.20;;
82387;SDS011;72027;47.420;9.310;2024-01-06T00:57:34;3.15;;;2.60;;
82387;SDS011;72027;47.420;9.310;2024-01-06T01:00:03;4.28;;;2.67;;
82387;SDS011;72027;47.420;9.310;2024-01-06T01:02:33;5.03;;;3.33;;
82387;SDS011;72027;47.420;9.310;2024-01-06T01:05:04;4.45;;;3.42;;
82387;SDS011;72027;47.420;9.310;2024-01-06T01:07:33;6.90;;;3.13;;
82387;SDS011;72027;47.420;9.310;2024-01-06T01:10:01;3.30;;;2.92;;
82387;SDS011;72027;47.420;9.310;2024-01-06T01:12:31;3.90;;;2.85;;
82387;SDS011;72027;47.420;9.310;2024-01-06T01:14:59;3.63;;;2.78;;
82387;SDS011;72027;47.420;9.310;2024-01-06T01:17:27;4.55;;;3.00;;
82387;SDS011;72027;47.420;9.310;2024-01-06T01:19:56;4.72;;;3.83;;
82387;SDS011;72027;47.420;9.310;2024-01-06T01:22:24;3.95;;;3.33;;
82387;SDS011;72027;47.420;9.310;2024-01-06T01:24:51;3.65;;;2.60;;
82387;SDS011;72027;47.420;9.310;2024-01-06T01:27:19;3.60;;;2.95;;
82387;SDS011;72027;47.420;9.310;2024-01-06T01:29:47;3.03;;;2.58;;
82387;SDS011;72027;47.420;9.310;2024-01-06T01:32:19;3.85;;;2.63;;
82387;SDS011;72027;47.420;9.310;2024-01-06T01:34:47;3.85;;;2.83;;
82387;SDS011;72027;47.420;9.310;2024-01-06T01:37:16;3.75;;;3.10;;
82387;SDS011;72027;47.420;9.310;2024-01-06T01:39:44;6.13;;;3.10;;
82387;SDS011;72027;47.420;9.310;2024-01-06T01:42:12;3.92;;;3.05;;
82387;SDS011;72027;47.420;9.310;2024-01-06T01:44:39;4.93;;;3.58;;
82387;SDS011;72027;47.420;9.310;2024-01-06T01:47:07;5.32;;;3.08;;
82387;SDS011;72027;47.420;9.310;2024-01-06T01:49:35;3.75;;;2.97;;
82387;SDS011;72027;47.420;9.310;2024-01-06T01:52:03;3.15;;;2.55;;
82387;SDS011;72027;47.420;9.310;2024-01-06T01:54:33;3.47;;;2.70;;
82387;SDS011;72027;47.420;9.310;2024-01-06T01:57:01;3.75;;;2.95;;
82387;SDS011;72027;47.420;9.310;2024-01-06T01:59:29;4.13;;;3.25;;
82387;SDS011;72027;47.420;9.310;2024-01-06T02:01:57;6.00;;;2.90;;
82387;SDS011;72027;47.420;9.310;2024-01-06T02:04:25;4.88;;;2.75;;
82387;SDS011;72027;47.420;9.310;2024-01-06T02:06:53;4.10;;;3.10;;
82387;SDS011;72027;47.420;9.310;2024-01-06T02:09:21;3.55;;;3.10;;
82387;SDS011;72027;47.420;9.310;2024-01-06T02:11:56;3.95;;;3.35;;
82387;SDS011;72027;47.420;9.310;2024-01-06T02:14:24;3.95;;;2.95;;
82387;SDS011;72027;47.420;9.310;2024-01-06T02:16:51;4.30;;;2.78;;
82387;SDS011;72027;47.420;9.310;2024-01-06T02:19:19;3.78;;;1.98;;
82387;SDS011;72027;47.420;9.310;2024-01-06T02:21:50;1.73;;;1.52;;
82387;SDS011;72027;47.420;9.310;2024-01-06T02:24:19;3.30;;;2.20;;
82387;SDS011;72027;47.420;9.310;2024-01-06T02:26:47;2.78;;;2.17;;
82387;SDS011;72027;47.420;9.310;2024-01-06T02:29:15;2.95;;;2.28;;
82387;SDS011;72027;47.420;9.310;2024-01-06T02:31:43;2.88;;;2.03;;
82387;SDS011;72027;47.420;9.310;2024-01-06T02:34:11;5.53;;;3.15;;
82387;SDS011;72027;47.420;9.310;2024-01-06T02:36:39;2.97;;;2.05;;
82387;SDS011;72027;47.420;9.310;2024-01-06T02:39:08;2.15;;;1.80;;
82387;SDS011;72027;47.420;9.310;2024-01-06T02:41:36;2.40;;;2.10;;
82387;SDS011;72027;47.420;9.310;2024-01-06T02:44:04;3.45;;;2.35;;
82387;SDS011;72027;47.420;9.310;2024-01-06T02:46:34;3.38;;;1.73;;
82387;SDS011;72027;47.420;9.310;2024-01-06T02:49:02;3.50;;;2.38;;
82387;SDS011;72027;47.420;9.310;2024-01-06T02:51:29;2.10;;;1.90;;
82387;SDS011;72027;47.420;9.310;2024-01-06T02:53:57;2.90;;;2.60;;
82387;SDS011;72027;47.420;9.310;2024-01-06T02:56:26;4.82;;;2.85;;
82387;SDS011;72027;47.420;9.310;2024-01-06T02:58:54;3.75;;;2.58;;
82387;SDS011;72027;47.420;9.310;2024-01-06T03:01:22;3.78;;;2.42;;
82387;SDS011;72027;47.420;9.310;2024-01-06T03:03:50;5.30;;;2.60;;
82387;SDS011;72027;47.420;9.310;2024-01-06T03:06:18;3.50;;;2.50;;
82387;SDS011;72027;47.420;9.310;2024-01-06T03:08:45;4.20;;;2.28;;
82387;SDS011;72027;47.420;9.310;2024-01-06T03:11:13;4.53;;;3.17;;
82387;SDS011;72027;47.420;9.310;2024-01-06T03:13:42;4.03;;;2.58;;
82387;SDS011;72027;47.420;9.310;2024-01-06T03:16:11;4.55;;;2.63;;
82387;SDS011;72027;47.420;9.310;2024-01-06T03:18:39;4.07;;;2.63;;
82387;SDS011;72027;47.420;9.310;2024-01-06T03:21:15;3.40;;;2.70;;
82387;SDS011;72027;47.420;9.310;2024-01-06T03:26:11;5.10;;;2.45;;
82387;SDS011;72027;47.420;9.310;2024-01-06T03:28:39;3.40;;;2.45;;
82387;SDS011;72027;47.420;9.310;2024-01-06T03:31:08;3.88;;;2.50;;
82387;SDS011;72027;47.420;9.310;2024-01-06T03:33:36;4.45;;;2.47;;
82387;SDS011;72027;47.420;9.310;2024-01-06T03:36:05;2.03;;;1.70;;
82387;SDS011;72027;47.420;9.310;2024-01-06T03:38:33;3.95;;;2.67;;
82387;SDS011;72027;47.420;9.310;2024-01-06T03:41:01;3.58;;;2.30;;
82387;SDS011;72027;47.420;9.310;2024-01-06T03:43:29;4.72;;;3.05;;
82387;SDS011;72027;47.420;9.310;2024-01-06T03:45:57;3.60;;;2.45;;
82387;SDS011;72027;47.420;9.310;2024-01-06T03:48:28;3.30;;;2.85;;
82387;SDS011;72027;47.420;9.310;2024-01-06T03:50:55;4.10;;;2.60;;
82387;SDS011;72027;47.420;9.310;2024-01-06T03:53:23;4.00;;;2.65;;
82387;SDS011;72027;47.420;9.310;2024-01-06T03:55:52;3.95;;;2.95;;
82387;SDS011;72027;47.420;9.310;2024-01-06T03:58:20;3.83;;;3.00;;
82387;SDS011;72027;47.420;9.310;2024-01-06T04:00:48;5.35;;;3.08;;
82387;SDS011;72027;47.420;9.310;2024-01-06T04:03:16;7.18;;;3.50;;
82387;SDS011;72027;47.420;9.310;2024-01-06T04:05:45;3.72;;;2.95;;
82387;SDS011;72027;47.420;9.310;2024-01-06T04:08:13;4.28;;;3.00;;
82387;SDS011;72027;47.420;9.310;2024-01-06T04:10:40;4.45;;;2.90;;
82387;SDS011;72027;47.420;9.310;2024-01-06T04:13:10;5.00;;;2.60;;
82387;SDS011;72027;47.420;9.310;2024-01-06T04:15:38;5.30;;;3.33;;
82387;SDS011;72027;47.420;9.310;2024-01-06T04:18:06;3.65;;;2.80;;
82387;SDS011;72027;47.420;9.310;2024-01-06T04:20:36;4.15;;;2.67;;
82387;SDS011;72027;47.420;9.310;2024-01-06T04:23:05;4.05;;;2.90;;
82387;SDS011;72027;47.420;9.310;2024-01-06T04:25:33;4.53;;;2.38;;
82387;SDS011;72027;47.420;9.310;2024-01-06T04:28:00;4.28;;;2.80;;
82387;SDS011;72027;47.420;9.310;2024-01-06T04:30:28;2.67;;;2.15;;
82387;SDS011;72027;47.420;9.310;2024-01-06T04:32:56;2.90;;;2.10;;
82387;SDS011;72027;47.420;9.310;2024-01-06T04:35:24;3.20;;;2.47;;
82387;SDS011;72027;47.420;9.310;2024-01-06T04:37:52;3.42;;;2.80;;
82387;SDS011;72027;47.420;9.310;2024-01-06T04:40:21;2.28;;;2.00;;
82387;SDS011;72027;47.420;9.310;2024-01-06T04:42:49;3.20;;;2.47;;
82387;SDS011;72027;47.420;9.310;2024-01-06T04:45:17;3.40;;;2.58;;
82387;SDS011;72027;47.420;9.310;2024-01-06T04:47:45;3.13;;;2.33;;
82387;SDS011;72027;47.420;9.310;2024-01-06T04:50:13;2.58;;;2.28;;
82387;SDS011;72027;47.420;9.310;2024-01-06T04:52:42;3.67;;;2.55;;
82387;SDS011;72027;47.420;9.310;2024-01-06T04:55:10;3.83;;;2.70;;
82387;SDS011;72027;47.420;9.310;2024-01-06T04:57:39;3.22;;;2.30;;
82387;SDS011;72027;47.420;9.310;2024-01-06T05:00:07;2.65;;;2.03;;
82387;SDS011;72027;47.420;9.310;2024-01-06T05:02:35;3.22;;;2.47;;
82387;SDS011;72027;47.420;9.310;2024-01-06T05:05:03;2.17;;;1.88;;
82387;SDS011;72027;47.420;9.310;2024-01-06T05:07:31;3.22;;;2.60;;
82387;SDS011;72027;47.420;9.310;2024-01-06T05:09:59;4.22;;;2.67;;
82387;SDS011;72027;47.420;9.310;2024-01-06T05:12:27;3.25;;;2.55;;
82387;SDS011;72027;47.420;9.310;2024-01-06T05:14:56;3.30;;;2.40;;
82387;SDS011;72027;47.420;9.310;2024-01-06T05:17:24;3.72;;;3.00;;
82387;SDS011;72027;47.420;9.310;2024-01-06T05:19:52;7.05;;;3.30;;
82387;SDS011;72027;47.420;9.310;2024-01-06T05:22:19;4.95;;;3.00;;
82387;SDS011;72027;47.420;9.310;2024-01-06T05:24:47;5.97;;;3.22;;
82387;SDS011;72027;47.420;9.310;2024-01-06T05:27:19;3.50;;;3.20;;
82387;SDS011;72027;47.420;9.310;2024-01-06T05:29:47;2.97;;;2.58;;
82387;SDS011;72027;47.420;9.310;2024-01-06T05:32:17;3.80;;;2.85;;
82387;SDS011;72027;47.420;9.310;2024-01-06T05:34:45;3.75;;;2.85;;
82387;SDS011;72027;47.420;9.310;2024-01-06T05:37:13;3.08;;;2.67;;
82387;SDS011;72027;47.420;9.310;2024-01-06T05:39:41;3.40;;;2.88;;
82387;SDS011;72027;47.420;9.310;2024-01-06T05:42:09;4.00;;;3.00;;
82387;SDS011;72027;47.420;9.310;2024-01-06T05:44:38;5.07;;;3.50;;
82387;SDS011;72027;47.420;9.310;2024-01-06T05:47:06;4.00;;;3.38;;
82387;SDS011;72027;47.420;9.310;2024-01-06T05:49:37;5.57;;;4.03;;
82387;SDS011;72027;47.420;9.310;2024-01-06T05:52:08;5.03;;;3.38;;
82387;SDS011;72027;47.420;9.310;2024-01-06T05:54:36;3.20;;;2.75;;
82387;SDS011;72027;47.420;9.310;2024-01-06T05:57:07;4.30;;;2.72;;
82387;SDS011;72027;47.420;9.310;2024-01-06T05:59:35;3.72;;;3.22;;
82387;SDS011;72027;47.420;9.310;2024-01-06T06:02:03;4.03;;;3.13;;
82387;SDS011;72027;47.420;9.310;2024-01-06T06:04:31;6.70;;;3.40;;
82387;SDS011;72027;47.420;9.310;2024-01-06T06:07:00;4.57;;;3.40;;
82387;SDS011;72027;47.420;9.310;2024-01-06T06:09:28;4.95;;;3.72;;
82387;SDS011;72027;47.420;9.310;2024-01-06T06:11:56;5.85;;;3.92;;
82387;SDS011;72027;47.420;9.310;2024-01-06T06:14:24;5.90;;;4.28;;
82387;SDS011;72027;47.420;9.310;2024-01-06T06:16:54;6.88;;;4.18;;
82387;SDS011;72027;47.420;9.310;2024-01-06T06:19:22;4.28;;;3.40;;
82387;SDS011;72027;47.420;9.310;2024-01-06T06:21:50;5.53;;;3.75;;
82387;SDS011;72027;47.420;9.310;2024-01-06T06:24:20;5.47;;;4.80;;
82387;SDS011;72027;47.420;9.310;2024-01-06T06:26:48;5.43;;;3.78;;
82387;SDS011;72027;47.420;9.310;2024-01-06T06:29:16;5.97;;;4.78;;
82387;SDS011;72027;47.420;9.310;2024-01-06T06:31:44;6.55;;;4.78;;
82387;SDS011;72027;47.420;9.310;2024-01-06T06:34:13;6.85;;;4.18;;
82387;SDS011;72027;47.420;9.310;2024-01-06T06:36:40;6.85;;;4.85;;
82387;SDS011;72027;47.420;9.310;2024-01-06T06:39:08;6.93;;;3.90;;
82387;SDS011;72027;47.420;9.310;2024-01-06T06:41:38;6.72;;;4.60;;
82387;SDS011;72027;47.420;9.310;2024-01-06T06:44:05;6.78;;;5.10;;
82387;SDS011;72027;47.420;9.310;2024-01-06T06:46:33;6.70;;;4.93;;
82387;SDS011;72027;47.420;9.310;2024-01-06T06:49:01;6.95;;;4.68;;
82387;SDS011;72027;47.420;9.310;2024-01-06T06:51:29;6.55;;;4.88;;
82387;SDS011;72027;47.420;9.310;2024-01-06T06:53:57;7.07;;;5.10;;
82387;SDS011;72027;47.420;9.310;2024-01-06T06:56:25;5.97;;;4.57;;
82387;SDS011;72027;47.420;9.310;2024-01-06T06:58:54;7.30;;;4.75;;
82387;SDS011;72027;47.420;9.310;2024-01-06T07:01:22;9.02;;;5.25;;
82387;SDS011;72027;47.420;9.310;2024-01-06T07:03:50;7.65;;;4.47;;
82387;SDS011;72027;47.420;9.310;2024-01-06T07:06:17;7.63;;;5.35;;
82387;SDS011;72027;47.420;9.310;2024-01-06T07:08:45;8.32;;;5.70;;
82387;SDS011;72027;47.420;9.310;2024-01-06T07:11:13;10.00;;;5.70;;
82387;SDS011;72027;47.420;9.310;2024-01-06T07:13:44;7.03;;;5.20;;
82387;SDS011;72027;47.420;9.310;2024-01-06T07:16:14;9.70;;;5.90;;
82387;SDS011;72027;47.420;9.310;2024-01-06T07:18:43;10.38;;;6.70;;
82387;SDS011;72027;47.420;9.310;2024-01-06T07:21:12;9.63;;;6.07;;
82387;SDS011;72027;47.420;9.310;2024-01-06T07:23:40;10.60;;;7.10;;
82387;SDS011;72027;47.420;9.310;2024-01-06T07:26:08;10.32;;;6.78;;
82387;SDS011;72027;47.420;9.310;2024-01-06T07:28:36;11.77;;;7.85;;
82387;SDS011;72027;47.420;9.310;2024-01-06T07:31:04;11.20;;;7.63;;
82387;SDS011;72027;47.420;9.310;2024-01-06T07:33:34;8.70;;;5.75;;
82387;SDS011;72027;47.420;9.310;2024-01-06T07:36:02;9.32;;;5.95;;
82387;SDS011;72027;47.420;9.310;2024-01-06T07:38:30;7.88;;;5.88;;
82387;SDS011;72027;47.420;9.310;2024-01-06T07:40:58;9.02;;;5.75;;
82387;SDS011;72027;47.420;9.310;2024-01-06T07:43:26;8.05;;;5.43;;
82387;SDS011;72027;47.420;9.310;2024-01-06T07:45:54;7.53;;;5.28;;
82387;SDS011;72027;47.420;9.310;2024-01-06T07:48:22;6.85;;;5.07;;
82387;SDS011;72027;47.420;9.310;2024-01-06T07:50:53;14.95;;;6.43;;
82387;SDS011;72027;47.420;9.310;2024-01-06T07:53:22;9.15;;;6.03;;
82387;SDS011;72027;47.420;9.310;2024-01-06T07:55:50;9.73;;;6.80;;
82387;SDS011;72027;47.420;9.310;2024-01-06T07:58:17;10.48;;;6.57;;
82387;SDS011;72027;47.420;9.310;2024-01-06T08:00:46;9.05;;;6.13;;
82387;SDS011;72027;47.420;9.310;2024-01-06T08:03:14;8.38;;;5.32;;
82387;SDS011;72027;47.420;9.310;2024-01-06T08:05:42;6.97;;;5.07;;
82387;SDS011;72027;47.420;9.310;2024-01-06T08:08:12;6.55;;;5.35;;
82387;SDS011;72027;47.420;9.310;2024-01-06T08:10:43;6.88;;;5.20;;
82387;SDS011;72027;47.420;9.310;2024-01-06T08:13:10;8.10;;;5.45;;
82387;SDS011;72027;47.420;9.310;2024-01-06T08:15:39;7.45;;;5.82;;
82387;SDS011;72027;47.420;9.310;2024-01-06T08:18:10;7.28;;;5.43;;
82387;SDS011;72027;47.420;9.310;2024-01-06T08:20:44;8.50;;;5.13;;
82387;SDS011;72027;47.420;9.310;2024-01-06T08:23:13;9.18;;;5.53;;
82387;SDS011;72027;47.420;9.310;2024-01-06T08:25:42;7.28;;;5.25;;
82387;SDS011;72027;47.420;9.310;2024-01-06T08:28:12;8.00;;;5.15;;
82387;SDS011;72027;47.420;9.310;2024-01-06T08:30:41;10.57;;;6.75;;
82387;SDS011;72027;47.420;9.310;2024-01-06T08:33:12;7.65;;;5.05;;
82387;SDS011;72027;47.420;9.310;2024-01-06T08:35:40;7.13;;;4.85;;
82387;SDS011;72027;47.420;9.310;2024-01-06T08:38:08;6.68;;;4.32;;
82387;SDS011;72027;47.420;9.310;2024-01-06T08:40:37;6.28;;;4.25;;
82387;SDS011;72027;47.420;9.310;2024-01-06T08:43:05;5.18;;;3.72;;
82387;SDS011;72027;47.420;9.310;2024-01-06T08:45:33;5.97;;;4.00;;
82387;SDS011;72027;47.420;9.310;2024-01-06T08:48:01;5.82;;;4.20;;
82387;SDS011;72027;47.420;9.310;2024-01-06T08:50:29;6.07;;;4.28;;
82387;SDS011;72027;47.420;9.310;2024-01-06T08:52:57;5.60;;;3.78;;
82387;SDS011;72027;47.420;9.310;2024-01-06T08:55:25;5.53;;;4.20;;
82387;SDS011;72027;47.420;9.310;2024-01-06T08:57:54;7.70;;;5.53;;
82387;SDS011;72027;47.420;9.310;2024-01-06T09:00:23;7.55;;;5.10;;
82387;SDS011;72027;47.420;9.310;2024-01-06T09:02:51;7.32;;;5.03;;
82387;SDS011;72027;47.420;9.310;2024-01-06T09:05:19;7.68;;;5.70;;
82387;SDS011;72027;47.420;9.310;2024-01-06T09:07:47;9.75;;;5.70;;
82387;SDS011;72027;47.420;9.310;2024-01-06T09:10:19;8.30;;;5.50;;
82387;SDS011;72027;47.420;9.310;2024-01-06T09:12:47;8.18;;;5.80;;
82387;SDS011;72027;47.420;9.310;2024-01-06T09:15:16;8.15;;;5.82;;
82387;SDS011;72027;47.420;9.310;2024-01-06T09:17:44;10.60;;;6.25;;
82387;SDS011;72027;47.420;9.310;2024-01-06T09:20:12;10.75;;;6.55;;
82387;SDS011;72027;47.420;9.310;2024-01-06T09:22:40;10.40;;;6.93;;
82387;SDS011;72027;47.420;9.310;2024-01-06T09:25:11;7.90;;;4.97;;
82387;SDS011;72027;47.420;9.310;2024-01-06T09:27:39;8.75;;;6.13;;
82387;SDS011;72027;47.420;9.310;2024-01-06T09:30:07;10.07;;;6.15;;
82387;SDS011;72027;47.420;9.310;2024-01-06T09:32:38;9.38;;;5.95;;
82387;SDS011;72027;47.420;9.310;2024-01-06T09:35:06;9.40;;;6.20;;
82387;SDS011;72027;47.420;9.310;2024-01-06T09:37:35;7.32;;;5.20;;
82387;SDS011;72027;47.420;9.310;2024-01-06T09:40:03;7.65;;;4.65;;
82387;SDS011;72027;47.420;9.310;2024-01-06T09:42:31;6.63;;;5.05;;
82387;SDS011;72027;47.420;9.310;2024-01-06T09:44:59;6.32;;;4.35;;
82387;SDS011;72027;47.420;9.310;2024-01-06T09:47:27;6.53;;;4.25;;
82387;SDS011;72027;47.420;9.310;2024-01-06T09:49:57;7.10;;;4.40;;
82387;SDS011;72027;47.420;9.310;2024-01-06T09:52:28;8.02;;;5.30;;
82387;SDS011;72027;47.420;9.310;2024-01-06T09:54:59;8.38;;;5.47;;
82387;SDS011;72027;47.420;9.310;2024-01-06T09:57:29;8.45;;;5.57;;
82387;SDS011;72027;47.420;9.310;2024-01-06T09:59:57;9.13;;;5.70;;
82387;SDS011;72027;47.420;9.310;2024-01-06T10:02:25;9.10;;;6.65;;
82387;SDS011;72027;47.420;9.310;2024-01-06T10:04:54;12.27;;;6.25;;
82387;SDS011;72027;47.420;9.310;2024-01-06T10:07:23;9.48;;;6.75;;
82387;SDS011;72027;47.420;9.310;2024-01-06T10:09:54;12.68;;;7.53;;
82387;SDS011;72027;47.420;9.310;2024-01-06T10:12:23;12.05;;;7.70;;
82387;SDS011;72027;47.420;9.310;2024-01-06T10:14:51;10.48;;;6.97;;
82387;SDS011;72027;47.420;9.310;2024-01-06T10:17:19;13.55;;;7.45;;
82387;SDS011;72027;47.420;9.310;2024-01-06T10:19:47;13.82;;;8.18;;
82387;SDS011;72027;47.420;9.310;2024-01-06T10:22:15;10.95;;;7.30;;
82387;SDS011;72027;47.420;9.310;2024-01-06T10:24:45;13.05;;;8.38;;
82387;SDS011;72027;47.420;9.310;2024-01-06T10:27:13;12.63;;;7.97;;
82387;SDS011;72027;47.420;9.310;2024-01-06T10:29:41;13.65;;;8.93;;
82387;SDS011;72027;47.420;9.310;2024-01-06T10:32:09;15.10;;;9.68;;
82387;SDS011;72027;47.420;9.310;2024-01-06T10:34:38;16.48;;;9.77;;
82387;SDS011;72027;47.420;9.310;2024-01-06T10:37:06;16.27;;;10.13;;
82387;SDS011;72027;47.420;9.310;2024-01-06T10:39:36;17.58;;;10.25;;
82387;SDS011;72027;47.420;9.310;2024-01-06T10:42:06;14.10;;;9.32;;
82387;SDS011;72027;47.420;9.310;2024-01-06T10:44:35;15.30;;;8.40;;
82387;SDS011;72027;47.420;9.310;2024-01-06T10:47:08;11.40;;;7.68;;
82387;SDS011;72027;47.420;9.310;2024-01-06T10:49:38;13.55;;;8.73;;
82387;SDS011;72027;47.420;9.310;2024-01-06T10:52:07;9.77;;;6.72;;
82387;SDS011;72027;47.420;9.310;2024-01-06T10:54:37;13.02;;;7.82;;
82387;SDS011;72027;47.420;9.310;2024-01-06T10:57:08;14.20;;;8.40;;
82387;SDS011;72027;47.420;9.310;2024-01-06T10:59:39;13.77;;;8.77;;
82387;SDS011;72027;47.420;9.310;2024-01-06T11:02:08;10.38;;;6.60;;
82387;SDS011;72027;47.420;9.310;2024-01-06T11:04:38;13.55;;;7.45;;
82387;SDS011;72027;47.420;9.310;2024-01-06T11:07:08;9.15;;;6.18;;
82387;SDS011;72027;47.420;9.310;2024-01-06T11:09:37;10.77;;;6.45;;
82387;SDS011;72027;47.420;9.310;2024-01-06T11:12:13;8.40;;;5.47;;
82387;SDS011;72027;47.420;9.310;2024-01-06T11:14:42;10.75;;;6.40;;
82387;SDS011;72027;47.420;9.310;2024-01-06T11:17:12;9.00;;;5.90;;
82387;SDS011;72027;47.420;9.310;2024-01-06T11:19:43;9.40;;;6.00;;
82387;SDS011;72027;47.420;9.310;2024-01-06T11:22:23;9.80;;;5.55;;
82387;SDS011;72027;47.420;9.310;2024-01-06T11:24:51;10.73;;;6.00;;
82387;SDS011;72027;47.420;9.310;2024-01-06T11:27:22;7.78;;;4.93;;
82387;SDS011;72027;47.420;9.310;2024-01-06T11:29:53;10.68;;;5.35;;
82387;SDS011;72027;47.420;9.310;2024-01-06T11:32:25;6.38;;;4.28;;
82387;SDS011;72027;47.420;9.310;2024-01-06T11:34:55;7.72;;;4.72;;
82387;SDS011;72027;47.420;9.310;2024-01-06T11:37:34;8.82;;;4.38;;
82387;SDS011;72027;47.420;9.310;2024-01-06T11:40:04;6.88;;;4.28;;
82387;SDS011;72027;47.420;9.310;2024-01-06T11:42:37;5.63;;;4.10;;
82387;SDS011;72027;47.420;9.310;2024-01-06T11:45:05;7.03;;;4.40;;
82387;SDS011;72027;47.420;9.310;2024-01-06T11:47:34;10.80;;;4.57;;
82387;SDS011;72027;47.420;9.310;2024-01-06T11:50:06;7.70;;;4.30;;
82387;SDS011;72027;47.420;9.310;2024-01-06T11:52:34;5.47;;;3.80;;
82387;SDS011;72027;47.420;9.310;2024-01-06T11:55:02;5.82;;;4.03;;
82387;SDS011;72027;47.420;9.310;2024-01-06T11:57:30;8.93;;;3.80;;
82387;SDS011;72027;47.420;9.310;2024-01-06T12:00:00;7.95;;;3.78;;
82387;SDS011;72027;47.420;9.310;2024-01-06T12:02:32;2.88;;;2.03;;
82387;SDS011;72027;47.420;9.310;2024-01-06T12:04:59;4.97;;;2.30;;
82387;SDS011;72027;47.420;9.310;2024-01-06T12:07:28;6.25;;;3.78;;
82387;SDS011;72027;47.420;9.310;2024-01-06T12:10:00;6.50;;;4.10;;
82387;SDS011;72027;47.420;9.310;2024-01-06T12:12:29;10.27;;;4.00;;
82387;SDS011;72027;47.420;9.310;2024-01-06T12:14:57;8.68;;;4.20;;
82387;SDS011;72027;47.420;9.310;2024-01-06T12:17:29;7.05;;;3.63;;
82387;SDS011;72027;47.420;9.310;2024-01-06T12:19:58;10.10;;;3.80;;
82387;SDS011;72027;47.420;9.310;2024-01-06T12:22:26;5.32;;;3.45;;
82387;SDS011;72027;47.420;9.310;2024-01-06T12:24:54;5.30;;;3.90;;
82387;SDS011;72027;47.420;9.310;2024-01-06T12:27:24;6.97;;;4.10;;
82387;SDS011;72027;47.420;9.310;2024-01-06T12:29:52;7.32;;;3.95;;
82387;SDS011;72027;47.420;9.310;2024-01-06T12:32:20;4.38;;;3.53;;
82387;SDS011;72027;47.420;9.310;2024-01-06T12:34:49;6.15;;;4.10;;
82387;SDS011;72027;47.420;9.310;2024-01-06T12:37:17;6.45;;;4.07;;
82387;SDS011;72027;47.420;9.310;2024-01-06T12:39:45;6.30;;;3.90;;
82387;SDS011;72027;47.420;9.310;2024-01-06T12:42:15;7.55;;;3.83;;
82387;SDS011;72027;47.420;9.310;2024-01-06T12:44:44;4.40;;;3.63;;
82387;SDS011;72027;47.420;9.310;2024-01-06T12:47:11;5.93;;;3.33;;
82387;SDS011;72027;47.420;9.310;2024-01-06T12:49:40;6.47;;;3.95;;
82387;SDS011;72027;47.420;9.310;2024-01-06T12:52:09;5.60;;;3.70;;
82387;SDS011;72027;47.420;9.310;2024-01-06T12:54:37;9.23;;;3.83;;
82387;SDS011;72027;47.420;9.310;2024-01-06T12:57:09;6.05;;;3.92;;
82387;SDS011;72027;47.420;9.310;2024-01-06T12:59:39;4.97;;;3.28;;
82387;SDS011;72027;47.420;9.310;2024-01-06T13:02:07;5.85;;;4.28;;
82387;SDS011;72027;47.420;9.310;2024-01-06T13:04:35;9.65;;;3.72;;
82387;SDS011;72027;47.420;9.310;2024-01-06T13:07:03;5.72;;;3.83;;
82387;SDS011;72027;47.420;9.310;2024-01-06T13:09:33;7.15;;;4.18;;
82387;SDS011;72027;47.420;9.310;2024-01-06T13:12:03;13.02;;;4.47;;
82387;SDS011;72027;47.420;9.310;2024-01-06T13:14:32;5.03;;;3.70;;
82387;SDS011;72027;47.420;9.310;2024-01-06T13:17:00;10.90;;;4.05;;
82387;SDS011;72027;47.420;9.310;2024-01-06T13:19:29;5.68;;;3.90;;
82387;SDS011;72027;47.420;9.310;2024-01-06T13:22:00;8.45;;;3.65;;
82387;SDS011;72027;47.420;9.310;2024-01-06T13:24:40;7.38;;;3.60;;
82387;SDS011;72027;47.420;9.310;2024-01-06T13:27:09;7.35;;;4.07;;
82387;SDS011;72027;47.420;9.310;2024-01-06T13:29:37;4.88;;;3.28;;
82387;SDS011;72027;47.420;9.310;2024-01-06T13:32:07;7.28;;;3.97;;
82387;SDS011;72027;47.420;9.310;2024-01-06T13:34:37;4.65;;;3.70;;
82387;SDS011;72027;47.420;9.310;2024-01-06T13:37:05;8.50;;;4.90;;
82387;SDS011;72027;47.420;9.310;2024-01-06T13:39:33;6.82;;;4.28;;
82387;SDS011;72027;47.420;9.310;2024-01-06T13:42:03;7.10;;;4.15;;
82387;SDS011;72027;47.420;9.310;2024-01-06T13:44:31;5.45;;;3.78;;
82387;SDS011;72027;47.420;9.310;2024-01-06T13:47:00;7.45;;;4.05;;
82387;SDS011;72027;47.420;9.310;2024-01-06T13:49:28;5.80;;;4.10;;
82387;SDS011;72027;47.420;9.310;2024-01-06T13:51:56;9.63;;;4.32;;
82387;SDS011;72027;47.420;9.310;2024-01-06T13:54:24;3.90;;;3.47;;
82387;SDS011;72027;47.420;9.310;2024-01-06T13:56:52;7.25;;;4.63;;
82387;SDS011;72027;47.420;9.310;2024-01-06T13:59:21;8.23;;;4.28;;
82387;SDS011;72027;47.420;9.310;2024-01-06T14:01:49;8.15;;;5.10;;
82387;SDS011;72027;47.420;9.310;2024-01-06T14:04:17;12.00;;;5.32;;
82387;SDS011;72027;47.420;9.310;2024-01-06T14:06:45;8.50;;;4.50;;
82387;SDS011;72027;47.420;9.310;2024-01-06T14:09:14;10.80;;;4.80;;
82387;SDS011;72027;47.420;9.310;2024-01-06T14:11:42;12.40;;;4.95;;
82387;SDS011;72027;47.420;9.310;2024-01-06T14:14:11;8.23;;;4.97;;
82387;SDS011;72027;47.420;9.310;2024-01-06T14:16:40;7.40;;;5.28;;
82387;SDS011;72027;47.420;9.310;2024-01-06T14:19:10;7.80;;;5.72;;
82387;SDS011;72027;47.420;9.310;2024-01-06T14:21:39;7.88;;;5.78;;
82387;SDS011;72027;47.420;9.310;2024-01-06T14:24:07;11.93;;;6.93;;
82387;SDS011;72027;47.420;9.310;2024-01-06T14:26:35;10.50;;;5.40;;
82387;SDS011;72027;47.420;9.310;2024-01-06T14:29:03;10.45;;;5.65;;
82387;SDS011;72027;47.420;9.310;2024-01-06T14:31:33;6.88;;;5.03;;
82387;SDS011;72027;47.420;9.310;2024-01-06T14:34:02;10.80;;;5.20;;
82387;SDS011;72027;47.420;9.310;2024-01-06T14:36:30;6.00;;;4.13;;
82387;SDS011;72027;47.420;9.310;2024-01-06T14:38:58;8.38;;;3.75;;
82387;SDS011;72027;47.420;9.310;2024-01-06T14:41:27;7.68;;;4.20;;
82387;SDS011;72027;47.420;9.310;2024-01-06T14:43:55;6.28;;;4.25;;
82387;SDS011;72027;47.420;9.310;2024-01-06T14:46:23;3.50;;;3.20;;
82387;SDS011;72027;47.420;9.310;2024-01-06T14:48:50;4.63;;;3.42;;
82387;SDS011;72027;47.420;9.310;2024-01-06T14:51:20;4.07;;;3.53;;
82387;SDS011;72027;47.420;9.310;2024-01-06T14:53:48;5.60;;;3.40;;
82387;SDS011;72027;47.420;9.310;2024-01-06T14:56:16;3.15;;;2.80;;